Time;durP1;ratioP1;P1;durP2;ratioP2;P2;SDS_P1;SDS_P2;PMS_P1;PMS_P2;Temp;Humidity;BMP_temperature;BMP_pressure;BME280_temperature;BME280_humidity;BME280_pressure;Samples;Min_cycle;Max_cycle;Signal;HPM_P1;HPM_P2
2023/06/23 00:01:46;;;;;;;;;;;;;;;22.41;69.93;100963.41;7395600;19;1630;-48
2023/06/23 00:04:14;;;;;;;;;;;;;;;22.31;70.10;100959.94;7395235;19;1407;-48
2023/06/23 00:06:42;;;;;;;;;;;;;;;22.28;70.03;100969.13;7394849;19;1863;-48
2023/06/23 00:09:13;;;;;;;;;;;;;;;22.29;70.01;100967.31;7395359;19;1286;-48
2023/06/23 00:11:42;;;;;;;;;;;;;;;22.35;69.67;100982.88;7395891;19;1207;-47
2023/06/23 00:14:13;;;;;;;;;;;;;;;22.31;69.72;100968.84;7396037;19;1435;-48
2023/06/23 00:16:42;;;;;;;;;;;;;;;22.28;69.77;100976.38;7397282;19;1037;-48
2023/06/23 00:19:11;;;;;;;;;;;;;;;22.31;69.38;100968.00;7395927;19;1490;-49
2023/06/23 00:21:39;;;;;;;;;;;;;;;22.32;69.51;100988.53;7395897;19;1497;-48
2023/06/23 00:24:08;;;;;;;;;;;;;;;22.30;69.74;100969.00;7396404;19;1518;-48
2023/06/23 00:26:36;;;;;;;;;;;;;;;22.40;69.01;100981.41;7394694;19;1858;-48
2023/06/23 00:29:05;;;;;;;;;;;;;;;22.38;68.93;100971.78;7395768;19;1624;-48
2023/06/23 00:31:35;;;;;;;;;;;;;;;22.38;69.08;100982.56;7394645;19;1559;-47
2023/06/23 00:34:04;;;;;;;;;;;;;;;22.28;68.94;100976.38;7394617;19;1549;-47
2023/06/23 00:36:32;;;;;;;;;;;;;;;22.21;69.28;100981.50;7394233;19;1473;-48
2023/06/23 00:39:02;;;;;;;;;;;;;;;22.21;69.27;100981.50;7393228;19;1103;-49
2023/06/23 00:41:30;;;;;;;;;;;;;;;22.31;69.42;100976.09;7393929;19;1544;-49
2023/06/23 00:43:59;;;;;;;;;;;;;;;22.29;69.17;100988.88;7394538;19;1247;-49
2023/06/23 00:46:28;;;;;;;;;;;;;;;22.26;69.10;100973.00;7395283;19;1861;-49
2023/06/23 00:49:00;;;;;;;;;;;;;;;22.27;69.32;100975.53;7394780;19;1403;-48
2023/06/23 00:51:28;;;;;;;;;;;;;;;22.27;69.10;100980.09;7398260;19;1286;-48
2023/06/23 00:53:58;;;;;;;;;;;;;;;22.24;69.19;100982.09;7402472;19;1536;-49
2023/06/23 00:56:27;;;;;;;;;;;;;;;22.17;69.47;100962.09;7399974;19;1552;-49
2023/06/23 00:58:56;;;;;;;;;;;;;;;22.15;69.48;100969.50;7402088;19;1252;-48
2023/06/23 01:01:25;;;;;;;;;;;;;;;22.17;69.45;100966.66;7401928;19;1565;-49
2023/06/23 01:03:57;;;;;;;;;;;;;;;22.38;68.84;100959.16;7402133;19;1593;-50
2023/06/23 01:06:37;;;;;;;;;;;;;;;22.39;68.67;100958.16;7400355;19;1937;-49
2023/06/23 01:09:12;;;;;;;;;;;;;;;22.35;68.94;100972.09;7401738;19;1354;-49
2023/06/23 01:11:45;;;;;;;;;;;;;;;22.30;68.93;100969.00;7401936;19;1458;-49
2023/06/23 01:14:18;;;;;;;;;;;;;;;22.20;69.02;100961.81;7401287;19;1249;-50
2023/06/23 01:16:49;;;;;;;;;;;;;;;22.10;69.32;100979.84;7401644;19;1136;-48
2023/06/23 01:19:24;;;;;;;;;;;;;;;22.13;69.42;100973.34;7401160;19;1478;-49
2023/06/23 01:22:02;;;;;;;;;;;;;;;22.16;69.02;100976.59;7399701;19;1548;-48
2023/06/23 01:24:41;;;;;;;;;;;;;;;22.17;69.02;100975.56;7400618;19;1492;-49
2023/06/23 01:27:31;;;;;;;;;;;;;;;22.15;69.21;100966.78;7399824;19;1845;-49
2023/06/23 01:30:05;;;;;;;;;;;;;;;22.16;68.87;100978.41;7400541;19;1583;-49
2023/06/23 01:32:37;;;;;;;;;;;;;;;22.17;68.77;100970.19;7399673;19;1251;-50
2023/06/23 01:35:09;;;;;;;;;;;;;;;22.21;69.03;100966.19;7400363;19;1220;-50
2023/06/23 01:37:39;;;;;;;;;;;;;;;22.22;68.82;100967.91;7399224;19;1438;-49
2023/06/23 01:40:10;;;;;;;;;;;;;;;22.12;69.06;100975.16;7400097;19;1181;-49
2023/06/23 01:42:40;;;;;;;;;;;;;;;22.07;69.16;100969.41;7400260;19;1211;-49
2023/06/23 01:45:12;;;;;;;;;;;;;;;22.09;69.02;100980.88;7399691;19;1528;-48
2023/06/23 01:47:43;;;;;;;;;;;;;;;22.06;68.99;100965.00;7397866;19;1847;-48
2023/06/23 01:50:16;;;;;;;;;;;;;;;22.05;69.39;100968.72;7400472;19;1540;-49
2023/06/23 01:52:46;;;;;;;;;;;;;;;22.15;68.51;100987.50;7399566;19;1522;-49
2023/06/23 01:55:14;;;;;;;;;;;;;;;22.06;68.62;100981.16;7398423;19;1113;-49
2023/06/23 01:57:44;;;;;;;;;;;;;;;21.99;68.93;100989.00;7399569;19;1595;-49
2023/06/23 02:00:17;;;;;;;;;;;;;;;22.07;68.70;100973.94;7399265;19;1494;-49
2023/06/23 02:02:46;;;;;;;;;;;;;;;22.17;68.20;100980.97;7397650;19;1278;-48
2023/06/23 02:05:16;;;;;;;;;;;;;;;22.09;68.71;100977.34;7399180;19;1146;-50
2023/06/23 02:07:45;;;;;;;;;;;;;;;22.04;68.79;100996.63;7397627;19;1849;-49
2023/06/23 02:10:14;;;;;;;;;;;;;;;22.15;68.41;100985.66;7399720;19;1568;-53
2023/06/23 02:12:44;;;;;;;;;;;;;;;22.27;68.21;100990.88;7399904;19;1156;-48
2023/06/23 02:15:16;;;;;;;;;;;;;;;22.19;68.24;100975.44;7399558;19;1757;-48
2023/06/23 02:17:46;;;;;;;;;;;;;;;22.11;68.47;100992.34;7398474;19;1211;-48
2023/06/23 02:20:16;;;;;;;;;;;;;;;22.27;68.17;100985.47;7398028;19;1494;-48
2023/06/23 02:22:49;;;;;;;;;;;;;;;22.22;68.14;100985.88;7398729;19;1498;-50
2023/06/23 02:25:18;;;;;;;;;;;;;;;22.03;68.51;100986.88;7398899;19;1175;-50
2023/06/23 02:27:47;;;;;;;;;;;;;;;21.98;68.63;100997.22;7398461;19;1838;-48
2023/06/23 02:30:20;;;;;;;;;;;;;;;22.02;68.44;100995.91;7399115;19;1120;-50
2023/06/23 02:32:48;;;;;;;;;;;;;;;22.11;68.61;101015.75;7398324;19;2096;-49
2023/06/23 02:35:17;;;;;;;;;;;;;;;22.18;68.12;101006.03;7398730;19;1297;-48
2023/06/23 02:37:49;;;;;;;;;;;;;;;22.08;68.20;100997.16;7398113;19;1266;-48
2023/06/23 02:40:19;;;;;;;;;;;;;;;21.98;68.40;100992.69;7398120;19;1212;-48
2023/06/23 02:42:50;;;;;;;;;;;;;;;21.99;68.43;101001.63;7398506;19;1541;-48
2023/06/23 02:45:24;;;;;;;;;;;;;;;21.99;68.27;100998.94;7398798;19;1113;-47
2023/06/23 02:47:55;;;;;;;;;;;;;;;22.03;68.17;100989.56;7396531;19;1853;-48
2023/06/23 02:50:27;;;;;;;;;;;;;;;21.96;68.07;100986.59;7397735;19;1156;-48
2023/06/23 02:52:57;;;;;;;;;;;;;;;21.94;68.31;100985.06;7397402;19;1612;-48
2023/06/23 02:55:25;;;;;;;;;;;;;;;21.89;68.41;100977.44;7395811;19;1546;-48
2023/06/23 02:57:56;;;;;;;;;;;;;;;21.85;68.28;100986.81;7398326;19;1048;-48
2023/06/23 03:00:30;;;;;;;;;;;;;;;21.92;68.24;100993.28;7397427;19;1890;-47
2023/06/23 03:02:59;;;;;;;;;;;;;;;21.91;68.13;100988.91;7396781;19;1178;-49
2023/06/23 03:05:28;;;;;;;;;;;;;;;21.93;68.14;100991.47;7397294;19;1439;-48
2023/06/23 03:07:56;;;;;;;;;;;;;;;21.93;68.11;100984.22;7394974;19;1841;-48
2023/06/23 03:10:24;;;;;;;;;;;;;;;21.98;67.92;100970.28;7397090;19;1565;-48
2023/06/23 03:12:53;;;;;;;;;;;;;;;21.95;68.10;100976.00;7396821;19;1857;-47
2023/06/23 03:15:21;;;;;;;;;;;;;;;21.98;68.04;100981.91;7395040;19;1255;-48
2023/06/23 03:17:56;;;;;;;;;;;;;;;22.12;67.79;100985.94;7396470;19;1297;-48
2023/06/23 03:20:26;;;;;;;;;;;;;;;22.50;66.30;100981.34;7397160;19;1267;-48
2023/06/23 03:22:57;;;;;;;;;;;;;;;22.29;66.74;100987.00;7396653;19;1615;-48
2023/06/23 03:25:27;;;;;;;;;;;;;;;22.13;67.65;100978.72;7395979;19;1224;-48
2023/06/23 03:27:56;;;;;;;;;;;;;;;22.17;67.59;100985.50;7395630;19;1842;-48
2023/06/23 03:30:26;;;;;;;;;;;;;;;22.06;67.91;100983.84;7396535;19;1287;-48
2023/06/23 03:33:00;;;;;;;;;;;;;;;21.99;68.49;100996.25;7396997;19;1291;-48
2023/06/23 03:35:31;;;;;;;;;;;;;;;22.02;68.31;100985.16;7396181;19;1541;-48
2023/06/23 03:38:01;;;;;;;;;;;;;;;22.22;67.78;100988.56;7396631;19;1634;-48
2023/06/23 03:40:31;;;;;;;;;;;;;;;22.28;67.53;100990.69;7396319;19;1632;-48
2023/06/23 03:43:04;;;;;;;;;;;;;;;22.22;67.82;100986.75;7396682;19;1621;-48
2023/06/23 03:45:35;;;;;;;;;;;;;;;22.22;67.65;100991.28;7397871;19;1299;-48
2023/06/23 03:48:08;;;;;;;;;;;;;;;22.13;68.25;100993.03;7396192;19;1865;-48
2023/06/23 03:50:38;;;;;;;;;;;;;;;22.10;68.27;100998.72;7396430;19;2033;-48
2023/06/23 03:53:08;;;;;;;;;;;;;;;22.14;68.58;100993.88;7397060;19;1533;-48
2023/06/23 03:55:36;;;;;;;;;;;;;;;22.16;68.40;100990.06;7395322;19;1487;-48
2023/06/23 03:58:07;;;;;;;;;;;;;;;22.11;68.68;100997.72;7396184;19;1164;-48
2023/06/23 04:00:36;;;;;;;;;;;;;;;22.13;68.51;100979.56;7395499;19;1042;-47
2023/06/23 04:03:08;;;;;;;;;;;;;;;22.15;68.37;100998.28;7395831;19;1525;-48
2023/06/23 04:05:39;;;;;;;;;;;;;;;22.22;68.57;101000.22;7396259;19;1482;-48
2023/06/23 04:08:09;;;;;;;;;;;;;;;22.27;68.33;101002.47;7395174;19;1893;-48
2023/06/23 04:10:38;;;;;;;;;;;;;;;22.22;68.54;100992.13;7395238;19;1955;-48
2023/06/23 04:13:07;;;;;;;;;;;;;;;22.26;68.43;101005.31;7395289;19;1491;-48
2023/06/23 04:15:37;;;;;;;;;;;;;;;22.27;68.36;100997.09;7395863;19;1270;-48
2023/06/23 04:18:09;;;;;;;;;;;;;;;22.23;68.50;100999.22;7395087;19;1313;-48
2023/06/23 04:20:38;;;;;;;;;;;;;;;22.23;68.63;100983.03;7394656;19;1671;-47
2023/06/23 04:23:07;;;;;;;;;;;;;;;22.49;67.68;100984.19;6876124;19;10000447;-48
2023/06/23 04:25:36;;;;;;;;;;;;;;;22.49;68.09;100995.81;7388213;19;1510;-48
2023/06/23 04:28:06;;;;;;;;;;;;;;;22.44;68.29;100987.31;7391940;19;1850;-47
2023/06/23 04:30:37;;;;;;;;;;;;;;;22.35;68.63;100988.25;7393867;19;1559;-48
2023/06/23 04:33:05;;;;;;;;;;;;;;;22.45;68.25;101005.19;7394983;19;1485;-48
2023/06/23 04:35:37;;;;;;;;;;;;;;;22.41;68.64;100999.25;7395839;19;1624;-48
2023/06/23 04:38:09;;;;;;;;;;;;;;;22.56;68.02;100996.03;7395888;19;1560;-49
2023/06/23 04:40:40;;;;;;;;;;;;;;;22.45;68.62;100994.44;7396056;19;1925;-48
2023/06/23 04:43:13;;;;;;;;;;;;;;;22.56;68.14;100993.34;7395069;19;1608;-47
2023/06/23 04:45:43;;;;;;;;;;;;;;;22.52;68.07;100975.78;7396031;19;1918;-48
2023/06/23 04:48:14;;;;;;;;;;;;;;;22.56;68.08;100991.50;7393957;19;1864;-48
2023/06/23 04:50:47;;;;;;;;;;;;;;;22.52;68.37;101000.91;7394873;19;1814;-48
2023/06/23 04:53:18;;;;;;;;;;;;;;;22.62;68.64;101023.25;7395233;19;1823;-48
2023/06/23 04:55:48;;;;;;;;;;;;;;;22.56;68.43;100999.59;7391780;19;1485;-48
2023/06/23 04:58:17;;;;;;;;;;;;;;;22.53;68.71;101007.13;7392480;19;1548;-48
2023/06/23 05:00:46;;;;;;;;;;;;;;;22.43;68.84;100996.44;7392078;19;1379;-48
2023/06/23 05:03:15;;;;;;;;;;;;;;;22.52;68.75;101000.91;7395226;19;1659;-48
2023/06/23 05:05:47;;;;;;;;;;;;;;;22.70;68.36;100991.97;7393942;19;1763;-48
2023/06/23 05:08:16;;;;;;;;;;;;;;;22.74;68.27;100988.81;7393637;19;1851;-49
2023/06/23 05:10:47;;;;;;;;;;;;;;;22.97;67.42;101005.34;7392925;19;1411;-50
2023/06/23 05:13:17;;;;;;;;;;;;;;;22.89;67.82;101001.75;7390902;19;1152;-48
2023/06/23 05:15:47;;;;;;;;;;;;;;;23.11;67.18;100997.75;7394081;19;1501;-48
2023/06/23 05:18:17;;;;;;;;;;;;;;;23.20;67.14;100997.63;7399145;19;1477;-48
2023/06/23 05:20:48;;;;;;;;;;;;;;;23.30;66.93;100989.44;7398197;19;1207;-49
2023/06/23 05:23:18;;;;;;;;;;;;;;;23.28;66.94;100998.69;7399796;19;1275;-47
2023/06/23 05:25:48;;;;;;;;;;;;;;;23.20;67.34;101002.19;7399680;19;1177;-48
2023/06/23 05:28:17;;;;;;;;;;;;;;;23.09;67.58;100999.75;7399441;19;1864;-48
2023/06/23 05:30:46;;;;;;;;;;;;;;;23.10;67.57;101006.81;7400246;19;1598;-49
2023/06/23 05:33:15;;;;;;;;;;;;;;;23.11;67.70;101012.06;7400864;19;1461;-48
2023/06/23 05:35:45;;;;;;;;;;;;;;;22.58;67.48;100919.44;7400796;19;1145;-48
2023/06/23 05:38:17;;;;;;;;;;;;;;;23.09;67.59;101007.84;7399616;19;1013;-48
2023/06/23 05:40:46;;;;;;;;;;;;;;;23.13;67.50;101009.22;7401955;19;1192;-49
2023/06/23 05:43:14;;;;;;;;;;;;;;;23.22;67.30;101056.84;7400960;19;1211;-48
2023/06/23 05:45:42;;;;;;;;;;;;;;;23.20;67.33;101019.22;7401571;19;1305;-47
2023/06/23 05:48:15;;;;;;;;;;;;;;;23.19;67.32;101033.69;7399839;19;1856;-48
2023/06/23 05:50:44;;;;;;;;;;;;;;;23.22;67.33;101021.78;7400032;19;1215;-48
2023/06/23 05:53:16;;;;;;;;;;;;;;;23.25;67.18;101023.31;7400460;19;1259;-47
2023/06/23 05:55:52;;;;;;;;;;;;;;;23.36;66.63;101014.97;7398571;19;1563;-48
2023/06/23 05:58:23;;;;;;;;;;;;;;;23.36;66.86;101013.09;7400816;19;1455;-48
2023/06/23 06:00:54;;;;;;;;;;;;;;;23.59;66.13;101017.94;7400570;19;1603;-48
2023/06/23 06:03:25;;;;;;;;;;;;;;;23.71;65.69;100995.06;7400171;19;1846;-49
2023/06/23 06:05:56;;;;;;;;;;;;;;;23.80;65.38;100996.00;7399990;19;1040;-48
2023/06/23 06:08:26;;;;;;;;;;;;;;;23.99;64.88;101006.56;7397789;19;1853;-48
2023/06/23 06:10:59;;;;;;;;;;;;;;;23.92;64.84;100999.25;7399284;19;1555;-48
2023/06/23 06:13:28;;;;;;;;;;;;;;;23.95;64.96;101005.16;7398987;19;1278;-48
2023/06/23 06:15:57;;;;;;;;;;;;;;;24.01;64.73;100995.56;7399180;19;2039;-47
2023/06/23 06:18:26;;;;;;;;;;;;;;;23.74;65.36;101008.25;7398583;19;1179;-48
2023/06/23 06:20:57;;;;;;;;;;;;;;;23.63;66.77;101012.09;7391553;19;1543;-49
2023/06/23 06:23:25;;;;;;;;;;;;;;;23.65;66.78;100995.72;7390052;19;1596;-49
2023/06/23 06:25:57;;;;;;;;;;;;;;;23.83;66.58;100998.34;7391444;19;1604;-48
2023/06/23 06:28:26;;;;;;;;;;;;;;;23.80;66.21;100993.31;7394393;19;1845;-48
2023/06/23 06:30:56;;;;;;;;;;;;;;;23.81;66.12;100990.44;7396693;19;1226;-47
2023/06/23 06:33:24;;;;;;;;;;;;;;;23.88;65.95;101003.31;7397091;19;1129;-48
2023/06/23 06:35:55;;;;;;;;;;;;;;;23.88;66.06;100995.19;7397095;19;1100;-48
2023/06/23 06:38:25;;;;;;;;;;;;;;;23.85;65.97;100988.25;7396400;19;1561;-48
2023/06/23 06:40:55;;;;;;;;;;;;;;;23.81;65.92;100992.28;7396345;19;1624;-47
2023/06/23 06:43:26;;;;;;;;;;;;;;;23.86;66.15;101003.44;7395724;19;1427;-48
2023/06/23 06:45:55;;;;;;;;;;;;;;;23.74;66.25;101008.25;7396680;19;1231;-47
2023/06/23 06:48:26;;;;;;;;;;;;;;;23.81;66.32;100995.84;7394274;19;1857;-47
2023/06/23 06:50:55;;;;;;;;;;;;;;;23.74;66.32;100992.06;7396545;19;1614;-47
2023/06/23 06:53:24;;;;;;;;;;;;;;;23.75;66.86;100992.91;7396068;19;1541;-48
2023/06/23 06:55:52;;;;;;;;;;;;;;;23.65;67.07;100982.22;7394247;19;1463;-48
2023/06/23 06:58:21;;;;;;;;;;;;;;;23.76;66.57;100984.63;7396225;19;1208;-48
2023/06/23 07:00:52;;;;;;;;;;;;;;;23.72;66.51;100987.84;7395467;19;1235;-47
2023/06/23 07:03:20;;;;;;;;;;;;;;;23.84;66.31;100969.53;7395529;19;1327;-47
2023/06/23 07:05:48;;;;;;;;;;;;;;;23.73;66.83;100974.16;7393017;19;1375;-47
2023/06/23 07:08:17;;;;;;;;;;;;;;;23.72;66.86;100980.56;7393049;19;1830;-48
2023/06/23 07:10:48;;;;;;;;;;;;;;;23.73;66.78;100966.03;7393502;19;1522;-48
2023/06/23 07:13:16;;;;;;;;;;;;;;;23.74;66.85;100975.00;7396899;19;1509;-47
2023/06/23 07:15:45;;;;;;;;;;;;;;;23.63;67.29;100984.22;7394425;19;1344;-48
2023/06/23 07:18:15;;;;;;;;;;;;;;;23.85;66.92;100985.53;7397020;19;1191;-47
2023/06/23 07:20:44;;;;;;;;;;;;;;;24.06;66.11;100976.19;7396040;19;1294;-48
2023/06/23 07:23:12;;;;;;;;;;;;;;;24.30;65.16;100975.41;7396471;19;1568;-47
2023/06/23 07:25:40;;;;;;;;;;;;;;;24.09;65.88;100967.72;7395324;19;1475;-47
2023/06/23 07:28:09;;;;;;;;;;;;;;;23.85;67.77;100979.31;7396128;19;1849;-48
2023/06/23 07:30:38;;;;;;;;;;;;;;;23.61;68.70;100967.34;7394233;19;1312;-47
2023/06/23 07:33:06;;;;;;;;;;;;;;;23.66;68.69;100967.72;7395351;19;1051;-47
2023/06/23 07:35:38;;;;;;;;;;;;;;;23.57;68.80;100971.38;7394831;19;1557;-50
2023/06/23 07:38:06;;;;;;;;;;;;;;;23.77;67.99;100975.53;7395139;19;1208;-48
2023/06/23 07:40:35;;;;;;;;;;;;;;;23.91;68.64;100970.53;7395305;19;1483;-48
2023/06/23 07:43:03;;;;;;;;;;;;;;;23.92;68.87;100977.66;7393983;19;1614;-48
2023/06/23 07:45:32;;;;;;;;;;;;;;;23.86;68.28;100959.41;7394127;19;1123;-50
2023/06/23 07:48:00;;;;;;;;;;;;;;;23.70;69.65;100963.69;7394101;19;1855;-49
2023/06/23 07:50:28;;;;;;;;;;;;;;;23.75;69.11;100979.41;7393312;19;1266;-49
2023/06/23 07:52:59;;;;;;;;;;;;;;;23.70;69.36;100966.38;7391881;19;1382;-48
2023/06/23 07:55:28;;;;;;;;;;;;;;;23.68;69.28;100971.09;7389992;19;1851;-49
2023/06/23 07:57:56;;;;;;;;;;;;;;;23.73;69.17;100973.31;7395822;19;1164;-49
2023/06/23 08:00:25;;;;;;;;;;;;;;;23.76;68.96;100971.13;7390716;19;1269;-48
2023/06/23 08:02:53;;;;;;;;;;;;;;;23.77;68.69;100964.75;7391111;19;1939;-49
2023/06/23 08:05:21;;;;;;;;;;;;;;;23.80;68.92;100975.25;7390200;19;1623;-49
2023/06/23 08:07:50;;;;;;;;;;;;;;;23.79;68.70;100965.44;7391266;19;1015;-47
2023/06/23 08:10:21;;;;;;;;;;;;;;;23.81;68.63;100954.47;7388712;19;1900;-49
2023/06/23 08:12:49;;;;;;;;;;;;;;;23.86;68.79;100962.94;7389988;19;1244;-48
2023/06/23 08:15:18;;;;;;;;;;;;;;;23.83;68.81;100957.84;7387689;19;1552;-48
2023/06/23 08:17:46;;;;;;;;;;;;;;;23.82;68.80;100945.38;7390398;19;1128;-48
2023/06/23 08:20:14;;;;;;;;;;;;;;;23.87;68.60;100939.47;7394602;19;1179;-48
2023/06/23 08:22:43;;;;;;;;;;;;;;;23.86;68.37;100954.84;7393734;19;1215;-48
2023/06/23 08:25:11;;;;;;;;;;;;;;;23.88;68.57;100955.53;7395812;19;1258;-48
2023/06/23 08:27:42;;;;;;;;;;;;;;;23.89;68.53;100946.41;7395147;19;1867;-48
2023/06/23 08:30:11;;;;;;;;;;;;;;;23.86;68.42;100927.84;7394143;19;1851;-48
2023/06/23 08:32:39;;;;;;;;;;;;;;;23.89;68.70;100953.66;7395444;19;1635;-48
2023/06/23 08:35:08;;;;;;;;;;;;;;;23.90;68.35;100948.09;7395513;19;1568;-48
2023/06/23 08:37:36;;;;;;;;;;;;;;;23.90;68.35;100950.81;7394535;19;1567;-48
2023/06/23 08:40:05;;;;;;;;;;;;;;;23.87;68.53;100944.88;7395431;19;1232;-49
2023/06/23 08:42:34;;;;;;;;;;;;;;;23.92;68.62;100939.84;7396095;19;1187;-48
2023/06/23 08:45:05;;;;;;;;;;;;;;;23.90;68.45;100936.47;7395273;19;1953;-48
2023/06/23 08:47:35;;;;;;;;;;;;;;;23.92;68.25;100943.38;7394448;19;1595;-48
2023/06/23 08:50:04;;;;;;;;;;;;;;;23.86;68.42;100954.84;7393240;19;1850;-49
2023/06/23 08:52:32;;;;;;;;;;;;;;;23.88;68.55;100954.69;7394974;19;1513;-48
2023/06/23 08:55:02;;;;;;;;;;;;;;;23.86;68.35;100941.34;7394200;19;1503;-48
2023/06/23 08:57:30;;;;;;;;;;;;;;;23.88;68.60;100947.41;7395131;19;1184;-49
2023/06/23 08:59:58;;;;;;;;;;;;;;;23.90;68.15;100947.25;7394002;19;1528;-48
2023/06/23 09:02:29;;;;;;;;;;;;;;;23.91;68.09;100948.94;7393160;19;1219;-48
2023/06/23 09:04:57;;;;;;;;;;;;;;;23.89;68.47;100945.56;7393747;19;1279;-48
2023/06/23 09:07:27;;;;;;;;;;;;;;;23.90;68.21;100939.16;7393234;19;1631;-48
2023/06/23 09:09:55;;;;;;;;;;;;;;;23.91;67.93;100935.44;7392002;19;1825;-49
2023/06/23 09:12:24;;;;;;;;;;;;;;;23.85;68.34;100955.00;7396833;19;1439;-49
2023/06/23 09:14:53;;;;;;;;;;;;;;;23.83;68.25;100930.84;7401071;19;1434;-49
2023/06/23 09:17:21;;;;;;;;;;;;;;;23.86;68.31;100935.09;7400793;19;1511;-49
2023/06/23 09:19:54;;;;;;;;;;;;;;;23.87;68.14;100925.97;7401492;19;1584;-49
2023/06/23 09:22:23;;;;;;;;;;;;;;;23.80;68.21;100923.09;7401127;19;1180;-48
2023/06/23 09:24:51;;;;;;;;;;;;;;;23.81;68.20;100925.63;7402492;19;1156;-48
2023/06/23 09:27:19;;;;;;;;;;;;;;;23.80;68.36;100920.38;7401290;19;1808;-48
2023/06/23 09:30:01;;;;;;;;;;;;;;;23.81;68.19;100935.56;7399645;19;1857;-49
2023/06/23 09:32:32;;;;;;;;;;;;;;;23.77;68.33;100932.34;7400984;19;1466;-48
2023/06/23 09:35:03;;;;;;;;;;;;;;;23.80;68.13;100929.31;7401156;19;1299;-49
2023/06/23 09:37:37;;;;;;;;;;;;;;;23.81;68.31;100932.88;7400165;19;1430;-48
2023/06/23 09:40:06;;;;;;;;;;;;;;;23.83;67.99;100928.16;7401290;19;1208;-48
2023/06/23 09:42:35;;;;;;;;;;;;;;;23.80;68.03;100923.09;7402002;19;1321;-48
2023/06/23 09:45:03;;;;;;;;;;;;;;;23.83;67.87;100917.34;7400454;19;1175;-48
2023/06/23 09:47:31;;;;;;;;;;;;;;;23.80;67.98;100921.22;7399503;19;1252;-49
2023/06/23 09:50:02;;;;;;;;;;;;;;;23.81;68.18;100920.22;7399220;19;1837;-48
2023/06/23 09:52:31;;;;;;;;;;;;;;;23.80;67.96;100921.22;7400781;19;1264;-49
2023/06/23 09:54:59;;;;;;;;;;;;;;;23.84;68.14;100934.41;7399818;19;1159;-48
2023/06/23 09:57:27;;;;;;;;;;;;;;;23.80;68.03;100915.81;7401077;19;1036;-48
2023/06/23 09:59:58;;;;;;;;;;;;;;;23.78;68.11;100912.44;7400832;19;1183;-48
2023/06/23 10:02:27;;;;;;;;;;;;;;;23.80;67.86;100921.22;7400909;19;1565;-48
2023/06/23 10:05:00;;;;;;;;;;;;;;;23.81;67.94;100908.56;7399631;19;1627;-48
2023/06/23 10:07:31;;;;;;;;;;;;;;;23.77;67.95;100905.34;7400290;19;1209;-49
2023/06/23 10:10:00;;;;;;;;;;;;;;;23.79;68.17;100897.06;7399418;19;1864;-48
2023/06/23 10:12:29;;;;;;;;;;;;;;;23.78;68.27;100906.19;7400125;19;1187;-48
2023/06/23 10:14:58;;;;;;;;;;;;;;;23.76;68.23;100897.38;7399724;19;1286;-49
2023/06/23 10:17:26;;;;;;;;;;;;;;;23.77;68.15;100894.53;7399662;19;1179;-47
2023/06/23 10:19:57;;;;;;;;;;;;;;;23.74;68.20;100892.16;7399849;19;1510;-48
2023/06/23 10:22:26;;;;;;;;;;;;;;;23.76;68.02;100892.81;7399626;19;1137;-48
2023/06/23 10:24:57;;;;;;;;;;;;;;;23.71;68.27;100886.22;7399237;19;1118;-48
2023/06/23 10:27:26;;;;;;;;;;;;;;;23.71;68.16;100889.75;7399832;19;1458;-48
2023/06/23 10:29:55;;;;;;;;;;;;;;;23.67;68.09;100887.56;7398709;19;1871;-48
2023/06/23 10:32:24;;;;;;;;;;;;;;;23.69;68.09;100880.97;7399788;19;1517;-47
2023/06/23 10:34:53;;;;;;;;;;;;;;;23.67;68.35;100872.19;7400254;19;1549;-49
2023/06/23 10:37:23;;;;;;;;;;;;;;;23.66;68.30;100869.69;7399072;19;1651;-48
2023/06/23 10:39:53;;;;;;;;;;;;;;;23.65;68.10;100862.59;7399391;19;1435;-50
2023/06/23 10:42:26;;;;;;;;;;;;;;;23.67;68.25;100868.66;7398413;19;1815;-49
2023/06/23 10:44:55;;;;;;;;;;;;;;;23.65;68.12;100871.50;7399367;19;1310;-48
2023/06/23 10:47:23;;;;;;;;;;;;;;;23.68;68.10;100863.09;7398682;19;1180;-48
2023/06/23 10:49:51;;;;;;;;;;;;;;;23.67;68.31;100863.25;7398386;19;1863;-48
2023/06/23 10:52:21;;;;;;;;;;;;;;;23.61;68.54;100856.66;7399168;19;1627;-49
2023/06/23 10:54:49;;;;;;;;;;;;;;;23.64;68.36;100867.16;7398227;19;1113;-49
2023/06/23 10:57:18;;;;;;;;;;;;;;;23.59;68.50;100851.41;7397715;19;1865;-48
2023/06/23 11:00:00;;;;;;;;;;;;;;;23.64;68.34;100867.16;7397305;19;1471;-48
2023/06/23 11:02:29;;;;;;;;;;;;;;;23.58;68.33;100857.84;7397121;19;1223;-48
2023/06/23 11:05:06;;;;;;;;;;;;;;;23.60;68.34;100855.81;7398116;19;1632;-48
2023/06/23 11:07:34;;;;;;;;;;;;;;;23.58;68.41;100855.13;7397424;19;1319;-47
2023/06/23 11:10:06;;;;;;;;;;;;;;;23.58;68.67;100854.31;7396499;19;1849;-48
2023/06/23 11:12:36;;;;;;;;;;;;;;;23.56;68.55;100856.31;7397897;19;1545;-49
2023/06/23 11:15:16;;;;;;;;;;;;;;;23.58;68.38;100857.00;7396706;19;1287;-48
2023/06/23 11:17:45;;;;;;;;;;;;;;;23.58;68.63;100851.59;7396812;19;1287;-48
2023/06/23 11:20:31;;;;;;;;;;;;;;;23.57;68.51;100860.69;7397044;19;1423;-48
2023/06/23 11:23:01;;;;;;;;;;;;;;;23.55;68.59;100852.75;7397463;19;1607;-48
2023/06/23 11:25:30;;;;;;;;;;;;;;;23.55;68.40;100846.53;7397240;19;1254;-48
2023/06/23 11:28:13;;;;;;;;;;;;;;;23.54;68.59;100847.53;7396596;19;1482;-48
2023/06/23 11:30:56;;;;;;;;;;;;;;;23.53;68.64;100843.13;7395422;19;1867;-48
2023/06/23 11:33:28;;;;;;;;;;;;;;;23.57;68.60;100839.09;7397452;19;1204;-49
2023/06/23 11:35:56;;;;;;;;;;;;;;;23.54;68.71;100828.66;7394083;19;1270;-48
2023/06/23 11:38:24;;;;;;;;;;;;;;;23.51;68.69;100837.06;7395848;19;1490;-48
2023/06/23 11:40:54;;;;;;;;;;;;;;;23.55;68.44;100820.38;7392521;19;1761;-53
2023/06/23 11:43:22;;;;;;;;;;;;;;;23.59;68.71;100826.28;7393031;19;1250;-51
2023/06/23 11:45:54;;;;;;;;;;;;;;;23.66;69.00;100832.72;7393911;19;1238;-51
2023/06/23 11:48:28;;;;;;;;;;;;;;;23.82;68.31;100823.84;7395136;19;1585;-52
2023/06/23 11:50:56;;;;;;;;;;;;;;;23.88;68.24;100835.84;7392990;19;1857;-51
2023/06/23 11:53:25;;;;;;;;;;;;;;;23.91;68.29;100822.84;7392751;19;1655;-52
2023/06/23 11:55:54;;;;;;;;;;;;;;;23.98;68.11;100825.72;7394911;19;1307;-51
2023/06/23 11:58:22;;;;;;;;;;;;;;;23.94;68.04;100824.38;7396244;19;1628;-56
2023/06/23 12:00:50;;;;;;;;;;;;;;;23.98;68.20;100837.38;7395951;19;1270;-52
2023/06/23 12:03:19;;;;;;;;;;;;;;;23.99;67.85;100811.19;7395400;19;1425;-52
2023/06/23 12:05:50;;;;;;;;;;;;;;;23.93;68.69;100833.47;7394805;19;1866;-52
2023/06/23 12:08:18;;;;;;;;;;;;;;;23.95;68.43;100840.41;7396563;19;1051;-51
2023/06/23 12:10:48;;;;;;;;;;;;;;;23.95;68.27;100832.28;7395342;19;1853;-51
2023/06/23 12:13:17;;;;;;;;;;;;;;;23.93;68.25;100820.81;7395080;19;1150;-51
2023/06/23 12:15:46;;;;;;;;;;;;;;;23.90;68.21;100818.47;7395054;19;1326;-51
2023/06/23 12:18:14;;;;;;;;;;;;;;;23.67;69.26;100820.06;7393163;19;1442;-51
2023/06/23 12:20:44;;;;;;;;;;;;;;;23.79;68.79;100811.50;7393945;19;1215;-51
2023/06/23 12:23:16;;;;;;;;;;;;;;;23.96;68.34;100816.94;7395369;19;1219;-51
2023/06/23 12:25:45;;;;;;;;;;;;;;;23.91;68.57;100803.09;7395880;19;1104;-52
2023/06/23 12:28:16;;;;;;;;;;;;;;;23.96;68.08;100817.78;7395779;19;1843;-52
2023/06/23 12:30:46;;;;;;;;;;;;;;;23.92;68.29;100816.44;7392400;19;1857;-48
2023/06/23 12:33:16;;;;;;;;;;;;;;;23.99;68.09;100803.09;7389184;19;1546;-48
2023/06/23 12:35:56;;;;;;;;;;;;;;;23.94;68.37;100787.41;7391119;19;1481;-48
2023/06/23 12:38:27;;;;;;;;;;;;;;;23.92;68.42;100810.19;7393317;19;1434;-47
2023/06/23 12:40:55;;;;;;;;;;;;;;;23.84;68.71;100808.31;7392892;19;1521;-48
2023/06/23 12:43:24;;;;;;;;;;;;;;;23.86;68.78;100808.16;7394677;19;1195;-47
2023/06/23 12:45:55;;;;;;;;;;;;;;;23.85;68.64;100799.19;7394182;19;1592;-47
2023/06/23 12:48:24;;;;;;;;;;;;;;;23.86;68.58;100781.16;7399378;19;1241;-47
2023/06/23 12:50:56;;;;;;;;;;;;;;;23.90;68.17;100796.84;7398870;19;1834;-47
2023/06/23 12:53:27;;;;;;;;;;;;;;;23.94;68.25;100808.19;7400243;19;1571;-47
2023/06/23 12:55:55;;;;;;;;;;;;;;;23.94;68.12;100792.81;7397997;19;1201;-47
2023/06/23 12:58:24;;;;;;;;;;;;;;;23.97;68.11;100787.09;7400890;19;1565;-48
2023/06/23 13:00:52;;;;;;;;;;;;;;;23.98;68.34;100796.03;7399096;19;1279;-48